TimeEST,TemperatureF,Dew PointF,Humidity,Sea Level PressureIn,VisibilityMPH,Wind Direction,Wind SpeedMPH,Gust SpeedMPH,PrecipitationIn,Events,Conditions,WindDirDegrees,DateUTC
12:15 AM,19.4,13.8,79,29.74,7.0,South,11.5,17.3,N/A,Snow,Light Snow,190,2014-01-16 05:15:00
12:34 AM,19.4,13.6,78,29.74,7.0,South,9.2,16.1,N/A,Snow,Light Snow,180,2014-01-16 05:34:00
12:55 AM,20.1,14.0,77,29.74,7.0,South,17.3,21.9,N/A,Snow,Light Snow,190,2014-01-16 05:55:00
1:15 AM,20.3,14.0,77,29.73,5.0,SSW,13.8,26.5,N/A,Snow,Light Snow,200,2014-01-16 06:15:00
1:34 AM,20.3,13.8,76,29.72,7.0,South,11.5,19.6,N/A,Snow,Light Snow,180,2014-01-16 06:34:00
1:55 AM,20.5,14.0,76,29.70,7.0,South,12.7,23.0,N/A,Snow,Light Snow,190,2014-01-16 06:55:00
2:15 AM,20.3,14.0,77,29.69,10.0,South,12.7,19.6,N/A,,Overcast,180,2014-01-16 07:15:00
2:34 AM,20.3,13.8,76,29.69,10.0,South,15.0,19.6,N/A,,Overcast,180,2014-01-16 07:34:00
2:55 AM,20.7,14.0,75,29.68,10.0,South,16.1,23.0,N/A,,Overcast,170,2014-01-16 07:55:00
3:15 AM,21.0,14.4,75,29.67,7.0,South,12.7,19.6,N/A,,Overcast,180,2014-01-16 08:15:00
3:35 AM,21.2,14.5,75,29.66,10.0,South,13.8,18.4,N/A,,Overcast,180,2014-01-16 08:35:00
3:55 AM,21.2,14.5,75,29.65,10.0,South,10.4,17.3,N/A,,Overcast,190,2014-01-16 08:55:00
4:14 AM,21.6,14.9,76,29.63,7.0,South,11.5,20.7,N/A,,Overcast,180,2014-01-16 09:14:00
4:35 AM,21.7,15.6,77,29.62,5.0,South,11.5,21.9,N/A,Snow,Light Snow,180,2014-01-16 09:35:00
4:55 AM,21.2,15.8,80,29.61,3.0,SSE,12.7,17.3,N/A,Snow,Light Snow,160,2014-01-16 09:55:00
5:14 AM,20.8,16.0,81,29.59,5.0,SSE,10.4,19.6,N/A,Snow,Light Snow,160,2014-01-16 10:14:00
5:35 AM,21.0,16.3,82,29.59,3.0,South,10.4,19.6,N/A,Snow,Light Snow,170,2014-01-16 10:35:00
5:55 AM,21.2,16.5,82,29.58,4.0,SSE,9.2,17.3,N/A,Snow,Light Snow,160,2014-01-16 10:55:00
6:14 AM,21.0,16.5,83,29.57,4.0,SSE,16.1,21.9,N/A,Snow,Light Snow,160,2014-01-16 11:14:00
6:35 AM,20.8,15.6,80,29.56,7.0,SSE,16.1,21.9,N/A,Snow,Light Snow,160,2014-01-16 11:35:00
6:55 AM,20.3,14.7,79,29.56,7.0,SSE,15.0,20.7,N/A,,Scattered Clouds,160,2014-01-16 11:55:00
7:15 AM,20.3,14.5,78,29.56,10.0,SSE,15.0,21.9,N/A,,Overcast,150,2014-01-16 12:15:00
7:35 AM,20.3,14.0,77,29.55,10.0,SSE,15.0,23.0,N/A,,Overcast,160,2014-01-16 12:35:00
7:54 AM,20.5,14.0,76,29.55,10.0,SSE,12.7,19.6,N/A,,Overcast,160,2014-01-16 12:54:00
8:15 AM,20.5,14.0,76,29.55,5.0,SSE,15.0,21.9,N/A,,Haze,160,2014-01-16 13:15:00
8:35 AM,20.8,14.0,75,29.54,7.0,SSE,16.1,-,N/A,,Overcast,160,2014-01-16 13:35:00
8:54 AM,21.0,14.4,75,29.55,5.0,SSE,13.8,25.3,N/A,,Haze,160,2014-01-16 13:54:00
9:15 AM,21.2,14.9,77,29.55,4.0,SSE,15.0,24.2,N/A,,Haze,150,2014-01-16 14:15:00
9:35 AM,21.2,15.1,77,29.55,4.0,SSE,18.4,26.5,N/A,,Haze,150,2014-01-16 14:35:00
9:54 AM,21.2,15.3,78,29.55,4.0,SSE,15.0,24.2,N/A,,Haze,160,2014-01-16 14:54:00
10:15 AM,21.2,15.4,78,29.55,3.0,SSE,12.7,21.9,N/A,,Haze,160,2014-01-16 15:15:00
10:35 AM,21.2,15.4,78,29.55,5.0,SSE,16.1,21.9,N/A,,Haze,160,2014-01-16 15:35:00
10:54 AM,21.6,15.4,77,29.55,5.0,SSE,16.1,25.3,N/A,,Haze,160,2014-01-16 15:54:00
11:15 AM,22.1,15.8,77,29.54,7.0,SSE,15.0,26.5,N/A,,Overcast,150,2014-01-16 16:15:00
11:35 AM,22.5,16.0,76,29.54,7.0,SSE,15.0,23.0,N/A,,Overcast,160,2014-01-16 16:35:00
11:55 AM,22.5,15.8,76,29.54,7.0,SSE,15.0,19.6,N/A,,Overcast,160,2014-01-16 16:55:00
12:15 PM,22.6,16.2,76,29.53,10.0,SSE,12.7,21.9,N/A,,Overcast,150,2014-01-16 17:15:00
12:34 PM,23.0,16.3,76,29.53,7.0,SSE,15.0,23.0,N/A,,Overcast,160,2014-01-16 17:34:00
12:55 PM,23.5,16.7,75,29.52,10.0,SSE,13.8,24.2,N/A,,Overcast,160,2014-01-16 17:55:00
1:15 PM,23.9,17.1,75,29.52,10.0,SSE,17.3,23.0,N/A,,Overcast,160,2014-01-16 18:15:00
1:34 PM,23.9,17.2,76,29.52,10.0,SSE,15.0,19.6,N/A,,Overcast,160,2014-01-16 18:34:00
1:55 PM,23.9,17.6,77,29.51,10.0,SSE,10.4,17.3,N/A,,Overcast,150,2014-01-16 18:55:00
2:15 PM,24.4,18.3,78,29.51,10.0,SSE,9.2,20.7,N/A,,Overcast,150,2014-01-16 19:15:00
2:34 PM,24.6,18.5,78,29.51,5.0,SSE,15.0,18.4,N/A,Snow,Light Snow,150,2014-01-16 19:34:00
2:55 PM,24.1,19.9,84,29.51,0.8,SSE,11.5,17.3,N/A,Snow,Light Snow,150,2014-01-16 19:55:00
3:14 PM,23.9,20.1,85,29.52,2.0,SSE,11.5,18.4,N/A,Snow,Light Snow,150,2014-01-16 20:14:00
3:35 PM,24.4,19.9,83,29.52,7.0,SE,11.5,16.1,N/A,,Overcast,140,2014-01-16 20:35:00
3:55 PM,24.4,19.9,83,29.52,7.0,SE,11.5,-,N/A,,Overcast,130,2014-01-16 20:55:00
4:14 PM,24.8,20.1,82,29.52,5.0,SE,9.2,17.3,N/A,,Haze,140,2014-01-16 21:14:00
4:35 PM,24.8,20.1,82,29.52,7.0,SE,9.2,16.1,N/A,,Overcast,140,2014-01-16 21:35:00
4:55 PM,25.2,20.1,81,29.53,10.0,SE,11.5,17.3,N/A,,Overcast,140,2014-01-16 21:55:00
5:14 PM,25.2,20.1,81,29.54,10.0,SE,10.4,17.3,N/A,,Overcast,140,2014-01-16 22:14:00
5:35 PM,25.2,19.9,81,29.54,10.0,SE,12.7,-,N/A,,Overcast,140,2014-01-16 22:35:00
5:55 PM,25.2,19.6,79,29.54,10.0,SE,10.4,16.1,N/A,,Overcast,140,2014-01-16 22:55:00
6:15 PM,24.8,19.4,80,29.55,10.0,SE,9.2,-,N/A,,Overcast,130,2014-01-16 23:15:00
6:35 PM,24.8,19.4,80,29.55,10.0,SE,9.2,-,N/A,,Overcast,130,2014-01-16 23:35:00
6:54 PM,24.8,19.4,80,29.56,10.0,SE,10.4,-,N/A,,Overcast,130,2014-01-16 23:54:00
7:15 PM,24.8,19.9,82,29.56,10.0,SE,6.9,-,N/A,Snow,Light Snow,140,2014-01-17 00:15:00
7:35 PM,24.8,20.3,83,29.56,5.0,SE,9.2,-,N/A,Snow,Light Snow,130,2014-01-17 00:35:00
7:55 PM,24.8,20.3,83,29.56,7.0,SE,8.1,-,N/A,,Overcast,140,2014-01-17 00:55:00
8:15 PM,24.8,20.3,83,29.56,7.0,SE,9.2,-,N/A,,Overcast,130,2014-01-17 01:15:00
8:34 PM,24.8,20.8,85,29.57,4.0,SE,6.9,-,N/A,Snow,Light Snow,130,2014-01-17 01:34:00
8:55 PM,24.6,21.2,87,29.57,3.0,SE,5.8,-,N/A,Snow,Light Snow,130,2014-01-17 01:55:00
9:15 PM,24.4,21.9,90,29.57,3.0,SE,8.1,-,N/A,Snow,Light Snow,130,2014-01-17 02:15:00
9:34 PM,24.4,22.1,91,29.57,3.0,ESE,8.1,-,N/A,Snow,Light Snow,120,2014-01-17 02:34:00
9:55 PM,24.4,22.5,92,29.58,2.5,ESE,6.9,-,N/A,Snow,Light Snow,120,2014-01-17 02:55:00
10:15 PM,24.4,22.6,93,29.58,2.5,ESE,6.9,-,N/A,Snow,Light Snow,120,2014-01-17 03:15:00
10:34 PM,24.3,22.6,94,29.58,3.0,ESE,5.8,-,N/A,Snow,Light Snow,120,2014-01-17 03:34:00
10:55 PM,23.5,22.1,94,29.58,4.0,ESE,6.9,-,N/A,Snow,Light Snow,120,2014-01-17 03:55:00
11:15 PM,23.5,21.9,94,29.57,7.0,SE,6.9,-,N/A,Snow,Light Snow,130,2014-01-17 04:15:00
11:34 PM,23.9,21.9,92,29.58,5.0,SE,5.8,-,N/A,,Overcast,130,2014-01-17 04:34:00
11:55 PM,24.3,21.9,91,29.58,4.0,ESE,5.8,-,N/A,Snow,Light Snow,120,2014-01-17 04:55:00